Time;durP1;ratioP1;P1;durP2;ratioP2;P2;SDS_P1;SDS_P2;PMS_P1;PMS_P2;Temp;Humidity;BMP_temperature;BMP_pressure;BME280_temperature;BME280_humidity;BME280_pressure;Samples;Min_cycle;Max_cycle;Signal;HPM_P1;HPM_P2
2023/07/23 00:00:34;;;;;;;7.75;3.80;;;16.80;95.30;;;;;;5037975;28;20094;-81
2023/07/23 00:02:59;;;;;;;9.75;3.80;;;16.80;95.30;;;;;;5055993;28;20065;-81
2023/07/23 00:05:25;;;;;;;7.60;3.70;;;16.80;95.40;;;;;;5055013;28;20048;-81
2023/07/23 00:07:54;;;;;;;8.23;3.83;;;16.80;95.40;;;;;;5055644;28;20033;-81
2023/07/23 00:10:20;;;;;;;7.35;3.63;;;16.80;95.70;;;;;;5056006;28;20065;-80
2023/07/23 00:12:45;;;;;;;7.82;3.63;;;16.80;95.50;;;;;;5056214;28;20063;-81
2023/07/23 00:15:12;;;;;;;9.38;3.78;;;16.80;95.60;;;;;;5055028;28;20040;-81
2023/07/23 00:17:39;;;;;;;7.53;3.65;;;16.80;95.70;;;;;;5056055;28;20052;-81
2023/07/23 00:20:07;;;;;;;7.70;3.47;;;16.80;95.80;;;;;;5054759;28;20044;-81
2023/07/23 00:22:33;;;;;;;8.05;4.47;;;16.80;95.90;;;;;;5054974;28;20033;-81
2023/07/23 00:24:58;;;;;;;7.28;4.10;;;16.80;95.80;;;;;;5056068;28;20029;-81
2023/07/23 00:27:24;;;;;;;8.00;4.05;;;16.80;95.90;;;;;;5055957;28;20033;-81
2023/07/23 00:29:50;;;;;;;8.75;4.18;;;16.80;95.80;;;;;;5054479;28;20039;-82
2023/07/23 00:32:15;;;;;;;8.85;3.88;;;16.80;96.10;;;;;;5054660;28;20056;-81
2023/07/23 00:34:41;;;;;;;8.57;3.90;;;16.80;95.80;;;;;;5056066;28;20496;-81
2023/07/23 00:37:06;;;;;;;7.63;3.78;;;16.80;95.90;;;;;;5037838;28;20032;-81
2023/07/23 00:39:32;;;;;;;8.32;4.00;;;16.70;95.90;;;;;;5037924;28;20035;-81
2023/07/23 00:41:58;;;;;;;9.20;4.18;;;16.70;95.90;;;;;;5054443;28;20083;-81
2023/07/23 00:44:23;;;;;;;10.77;4.68;;;16.70;95.90;;;;;;5055952;28;20424;-81
2023/07/23 00:46:50;;;;;;;9.80;4.45;;;16.70;96.00;;;;;;5055938;28;20036;-81
2023/07/23 00:49:16;;;;;;;7.93;4.53;;;16.70;96.30;;;;;;5037515;28;20448;-81
2023/07/23 00:51:42;;;;;;;8.60;4.97;;;16.70;96.00;;;;;;5055379;28;20057;-81
2023/07/23 00:54:08;;;;;;;8.25;4.82;;;16.70;96.10;;;;;;5054019;28;20108;-81
2023/07/23 00:56:35;;;;;;;11.13;5.28;;;16.70;96.10;;;;;;5054012;28;20557;-81
2023/07/23 00:59:01;;;;;;;9.80;5.72;;;16.70;96.20;;;;;;5055341;28;20078;-81
2023/07/23 01:01:30;;;;;;;9.32;5.18;;;16.60;96.20;;;;;;5053857;28;20385;-81
2023/07/23 01:03:55;;;;;;;9.70;5.35;;;16.60;96.20;;;;;;5054023;28;20025;-81
2023/07/23 01:06:24;;;;;;;8.65;4.78;;;16.70;96.30;;;;;;5054983;28;20388;-80
2023/07/23 01:08:50;;;;;;;14.13;5.95;;;16.70;96.40;;;;;;5055084;28;20033;-81
2023/07/23 01:11:16;;;;;;;10.30;5.38;;;16.60;96.40;;;;;;5036979;28;20029;-81
2023/07/23 01:13:43;;;;;;;10.45;5.43;;;16.60;96.40;;;;;;5055117;28;20021;-80
2023/07/23 01:16:10;;;;;;;11.07;4.90;;;16.60;96.40;;;;;;5054669;28;20013;-80
2023/07/23 01:18:39;;;;;;;9.07;4.88;;;16.60;96.50;;;;;;5053691;28;20024;-81
2023/07/23 01:21:05;;;;;;;11.63;5.97;;;16.60;96.60;;;;;;5054332;28;20140;-74
2023/07/23 01:23:31;;;;;;;9.48;5.15;;;16.60;96.60;;;;;;5054637;28;20048;-74
2023/07/23 01:25:57;;;;;;;9.68;5.10;;;16.60;96.60;;;;;;5036647;28;20029;-74
2023/07/23 01:28:24;;;;;;;9.60;4.95;;;16.60;96.60;;;;;;5053635;28;20036;-74
2023/07/23 01:30:49;;;;;;;7.95;4.15;;;16.60;96.70;;;;;;5054834;28;20040;-81
2023/07/23 01:33:16;;;;;;;9.05;4.90;;;16.60;96.80;;;;;;5053384;28;20025;-81
2023/07/23 01:35:44;;;;;;;10.90;4.60;;;16.60;96.80;;;;;;5053193;28;20108;-80
2023/07/23 01:38:11;;;;;;;8.88;5.25;;;16.60;96.90;;;;;;5054330;28;20021;-81
2023/07/23 01:40:37;;;;;;;9.57;4.43;;;16.60;96.90;;;;;;5054679;28;20079;-81
2023/07/23 01:43:03;;;;;;;9.95;4.57;;;16.60;96.80;;;;;;5053008;28;20052;-81
2023/07/23 01:45:29;;;;;;;10.98;4.40;;;16.60;96.90;;;;;;5053132;28;20044;-81
2023/07/23 01:47:55;;;;;;;8.95;4.60;;;16.60;96.90;;;;;;5053011;28;20036;-81
2023/07/23 01:50:21;;;;;;;9.70;4.38;;;16.60;96.90;;;;;;5054005;28;20040;-81
2023/07/23 01:52:46;;;;;;;8.77;4.55;;;16.60;97.00;;;;;;5019871;28;20029;-81
2023/07/23 01:55:12;;;;;;;8.93;3.78;;;16.60;97.00;;;;;;5053912;28;20032;-81
2023/07/23 01:57:38;;;;;;;7.97;4.22;;;16.60;97.10;;;;;;5031529;28;20058;-82
2023/07/23 02:00:04;;;;;;;6.63;3.53;;;16.60;97.10;;;;;;5053145;28;20047;-81
2023/07/23 02:02:30;;;;;;;7.97;4.07;;;16.60;97.10;;;;;;5053828;28;20052;-81
2023/07/23 02:04:55;;;;;;;9.52;3.78;;;16.60;97.10;;;;;;5053644;28;20484;-82
2023/07/23 02:07:21;;;;;;;7.88;3.85;;;16.60;97.20;;;;;;5052701;28;20033;-81
2023/07/23 02:09:51;;;;;;;8.73;4.53;;;16.60;97.20;;;;;;5052438;28;20064;-81
2023/07/23 02:12:17;;;;;;;8.95;3.80;;;16.60;97.20;;;;;;5053609;28;20425;-81
2023/07/23 02:14:43;;;;;;;7.40;3.85;;;16.60;97.20;;;;;;5052515;28;20080;-81
2023/07/23 02:17:08;;;;;;;9.25;4.72;;;16.60;97.30;;;;;;5053685;28;20104;-81
2023/07/23 02:19:34;;;;;;;8.57;3.58;;;16.60;97.30;;;;;;5035621;28;20035;-82
2023/07/23 02:21:59;;;;;;;8.25;4.35;;;16.60;97.30;;;;;;5019291;28;20040;-81
2023/07/23 02:24:25;;;;;;;8.00;4.20;;;16.50;97.20;;;;;;5053467;28;20044;-81
2023/07/23 02:26:50;;;;;;;6.40;4.03;;;16.50;97.10;;;;;;5053590;28;20040;-81
2023/07/23 02:29:16;;;;;;;9.80;4.28;;;16.50;97.10;;;;;;5051958;28;20064;-75
2023/07/23 02:31:42;;;;;;;9.60;4.30;;;16.50;97.40;;;;;;5019224;28;20025;-75
2023/07/23 02:34:07;;;;;;;9.40;4.30;;;16.50;97.20;;;;;;5052205;28;20082;-75
2023/07/23 02:36:34;;;;;;;7.30;4.40;;;16.50;97.60;;;;;;5052381;28;20040;-75
2023/07/23 02:39:00;;;;;;;9.68;3.80;;;16.50;97.30;;;;;;5052501;28;20450;-81
2023/07/23 02:41:26;;;;;;;7.82;4.03;;;16.50;97.30;;;;;;5053289;28;20031;-82
2023/07/23 02:43:53;;;;;;;7.38;4.05;;;16.50;97.30;;;;;;5052342;28;20444;-81
2023/07/23 02:46:18;;;;;;;8.23;4.50;;;16.40;97.40;;;;;;5053274;28;20083;-81
2023/07/23 02:48:44;;;;;;;8.27;4.78;;;16.40;97.40;;;;;;5053281;28;20036;-81
2023/07/23 02:51:10;;;;;;;7.82;4.20;;;16.50;97.40;;;;;;5051972;28;20031;-81
2023/07/23 02:53:35;;;;;;;9.85;4.90;;;16.40;97.50;;;;;;5053235;28;20439;-81
2023/07/23 02:56:01;;;;;;;8.63;4.25;;;16.50;97.50;;;;;;5051951;28;20022;-81
2023/07/23 02:58:27;;;;;;;8.65;4.00;;;16.40;97.50;;;;;;5053333;28;20037;-81
2023/07/23 03:00:55;;;;;;;10.07;3.78;;;16.40;97.60;;;;;;5035334;28;20131;-81
2023/07/23 03:03:21;;;;;;;8.95;3.92;;;16.50;97.70;;;;;;5053093;28;20051;-81
2023/07/23 03:05:46;;;;;;;7.85;3.92;;;16.40;97.70;;;;;;5053228;28;20037;-81
2023/07/23 03:08:12;;;;;;;6.53;3.78;;;16.40;97.70;;;;;;5053290;28;20334;-81
2023/07/23 03:10:40;;;;;;;5.63;3.40;;;16.50;97.70;;;;;;5051693;28;20034;-81
2023/07/23 03:13:06;;;;;;;8.07;2.97;;;16.50;97.70;;;;;;5051783;28;20021;-82
2023/07/23 03:15:32;;;;;;;8.30;3.83;;;16.40;97.70;;;;;;5051840;28;20033;-82
2023/07/23 03:17:57;;;;;;;8.02;4.07;;;16.50;97.80;;;;;;5035165;28;20074;-81
2023/07/23 03:20:23;;;;;;;6.15;3.17;;;16.50;97.80;;;;;;5052920;28;20472;-81
2023/07/23 03:22:50;;;;;;;8.52;3.85;;;16.50;97.80;;;;;;5051672;28;20068;-81
2023/07/23 03:25:16;;;;;;;8.10;3.72;;;16.50;97.90;;;;;;5051923;28;20041;-81
2023/07/23 03:27:42;;;;;;;7.28;3.63;;;16.50;97.90;;;;;;5052772;28;20108;-81
2023/07/23 03:30:08;;;;;;;8.73;3.60;;;16.50;97.90;;;;;;5018620;28;20025;-81
2023/07/23 03:32:34;;;;;;;6.75;3.42;;;16.50;97.90;;;;;;5052877;28;20055;-81
2023/07/23 03:35:00;;;;;;;8.77;3.63;;;16.50;98.00;;;;;;5052816;28;20083;-81
2023/07/23 03:37:25;;;;;;;8.55;3.60;;;16.50;98.00;;;;;;5051668;28;20051;-82
2023/07/23 03:39:51;;;;;;;9.25;3.45;;;16.50;98.00;;;;;;5018597;28;20025;-81
2023/07/23 03:42:16;;;;;;;7.50;3.45;;;16.50;98.00;;;;;;5053271;28;20481;-81
2023/07/23 03:44:42;;;;;;;7.47;4.22;;;16.50;98.10;;;;;;5056567;28;20033;-81
2023/07/23 03:47:16;;;;;;;8.95;3.90;;;16.50;98.10;;;;;;5055362;28;20044;-82
2023/07/23 03:49:42;;;;;;;7.60;3.75;;;16.50;98.10;;;;;;5056461;28;20032;-81
2023/07/23 03:52:08;;;;;;;7.05;3.92;;;16.50;98.00;;;;;;5056460;28;20485;-81
2023/07/23 03:54:34;;;;;;;5.68;3.05;;;16.50;98.00;;;;;;5056486;28;20033;-81
2023/07/23 03:57:00;;;;;;;10.65;3.53;;;16.60;98.10;;;;;;5056313;28;20473;-81
2023/07/23 03:59:50;;;;;;;6.38;3.53;;;16.60;98.10;;;;;;5056193;28;20056;-81
2023/07/23 04:02:16;;;;;;;6.65;2.78;;;16.60;98.10;;;;;;5055961;28;20036;-82
2023/07/23 04:04:42;;;;;;;7.15;3.50;;;16.60;98.10;;;;;;5054834;28;20032;-82
2023/07/23 04:07:08;;;;;;;7.63;3.95;;;16.60;98.00;;;;;;5054913;28;20029;-82
2023/07/23 04:09:34;;;;;;;7.78;3.88;;;16.60;97.90;;;;;;5050632;28;20283;-82
2023/07/23 04:12:00;;;;;;;7.60;4.40;;;16.60;97.70;;;;;;5038288;28;20037;-82
2023/07/23 04:14:26;;;;;;;7.53;4.25;;;16.70;97.60;;;;;;5055626;28;20432;-81
2023/07/23 04:16:53;;;;;;;7.75;3.67;;;16.70;97.40;;;;;;5056265;28;20061;-82
2023/07/23 04:19:19;;;;;;;8.05;4.25;;;16.70;97.20;;;;;;5054468;28;20029;-82
2023/07/23 04:21:45;;;;;;;9.65;4.13;;;16.70;97.00;;;;;;5054446;28;20052;-82
2023/07/23 04:24:11;;;;;;;6.78;3.95;;;16.70;96.90;;;;;;5055890;28;20025;-80
2023/07/23 04:26:36;;;;;;;8.10;4.40;;;16.70;96.70;;;;;;5055684;28;20461;-82
2023/07/23 04:29:02;;;;;;;9.63;5.25;;;16.80;96.50;;;;;;5054557;28;20033;-82
2023/07/23 04:31:28;;;;;;;8.65;4.43;;;16.80;96.30;;;;;;5054196;28;20470;-83
2023/07/23 04:33:53;;;;;;;9.60;4.88;;;16.80;96.00;;;;;;5055549;28;20028;-82
2023/07/23 04:36:19;;;;;;;9.68;4.43;;;16.80;95.70;;;;;;5054304;28;20051;-83
2023/07/23 04:38:45;;;;;;;8.90;4.47;;;16.80;95.50;;;;;;5053611;28;20029;-81
2023/07/23 04:41:12;;;;;;;8.55;4.57;;;16.90;95.40;;;;;;5055381;28;20028;-82
2023/07/23 04:43:39;;;;;;;8.70;4.15;;;16.90;95.30;;;;;;5043038;28;20029;-82
2023/07/23 04:46:05;;;;;;;10.90;4.28;;;16.90;95.20;;;;;;5055429;28;20044;-82
2023/07/23 04:48:35;;;;;;;7.68;4.03;;;16.90;95.10;;;;;;5050091;28;20042;-81
2023/07/23 04:51:06;;;;;;;9.38;4.45;;;16.90;95.10;;;;;;5037745;28;20075;-82
2023/07/23 04:53:31;;;;;;;7.47;3.88;;;16.90;94.90;;;;;;5052461;28;20029;-82
2023/07/23 04:55:58;;;;;;;7.32;4.35;;;16.90;94.80;;;;;;5055217;28;20032;-82
2023/07/23 04:58:25;;;;;;;8.68;4.38;;;16.90;94.70;;;;;;5055059;28;20380;-82
2023/07/23 05:00:51;;;;;;;8.73;3.67;;;17.00;94.70;;;;;;5053943;28;20029;-81
2023/07/23 05:03:18;;;;;;;7.75;3.38;;;17.00;94.60;;;;;;5055104;28;20099;-82
2023/07/23 05:05:46;;;;;;;10.32;3.95;;;17.00;94.50;;;;;;5055051;28;20083;-81
2023/07/23 05:08:12;;;;;;;5.72;3.42;;;17.00;94.40;;;;;;5053617;28;20036;-82
2023/07/23 05:10:39;;;;;;;8.45;3.83;;;17.10;94.30;;;;;;5054794;28;20041;-82
2023/07/23 05:13:05;;;;;;;8.45;3.17;;;17.10;94.20;;;;;;5053551;28;20078;-81
2023/07/23 05:15:30;;;;;;;10.88;3.45;;;17.10;94.20;;;;;;5054793;28;20385;-82
2023/07/23 05:17:56;;;;;;;7.95;3.22;;;17.10;94.30;;;;;;5054920;28;20021;-82
2023/07/23 05:20:22;;;;;;;9.25;3.28;;;17.20;93.80;;;;;;5053357;28;20061;-82
2023/07/23 05:22:48;;;;;;;7.75;4.00;;;17.20;93.70;;;;;;5054589;28;20028;-82
2023/07/23 05:25:13;;;;;;;9.60;3.88;;;17.20;93.50;;;;;;5054696;28;20033;-75
2023/07/23 05:27:39;;;;;;;7.63;3.50;;;17.20;93.40;;;;;;5054395;28;20553;-82
2023/07/23 05:30:05;;;;;;;6.53;3.22;;;17.30;93.40;;;;;;5054256;28;20123;-74
2023/07/23 05:32:32;;;;;;;5.82;3.17;;;17.30;93.30;;;;;;5054501;28;20028;-74
2023/07/23 05:34:57;;;;;;;6.22;2.80;;;17.30;93.20;;;;;;5053011;28;20116;-74
2023/07/23 05:37:24;;;;;;;8.65;3.00;;;17.30;93.10;;;;;;5020054;28;20574;-74
2023/07/23 05:39:49;;;;;;;5.90;2.63;;;17.30;93.00;;;;;;5053095;28;20116;-74
2023/07/23 05:42:15;;;;;;;6.00;2.85;;;17.40;92.90;;;;;;5054390;28;20108;-75
2023/07/23 05:44:41;;;;;;;8.30;3.88;;;17.30;92.90;;;;;;5053234;28;20033;-75
2023/07/23 05:47:07;;;;;;;6.63;2.58;;;17.40;92.80;;;;;;5052855;28;20033;-75
2023/07/23 05:49:32;;;;;;;9.60;3.53;;;17.40;92.70;;;;;;5036196;28;20029;-75
2023/07/23 05:51:59;;;;;;;8.25;2.90;;;17.40;92.60;;;;;;5036167;28;20381;-75
2023/07/23 05:54:25;;;;;;;6.30;3.03;;;17.40;92.50;;;;;;5052598;28;20029;-75
2023/07/23 05:56:50;;;;;;;10.30;3.28;;;17.40;92.50;;;;;;5053927;28;20043;-76
2023/07/23 05:59:16;;;;;;;7.35;3.95;;;17.40;92.70;;;;;;5052810;28;20028;-73
2023/07/23 06:01:42;;;;;;;5.88;3.42;;;17.40;92.40;;;;;;5052549;28;20390;-74
2023/07/23 06:04:11;;;;;;;5.55;2.83;;;17.40;92.30;;;;;;5053310;28;20143;-75
2023/07/23 06:06:36;;;;;;;5.57;2.92;;;17.40;92.40;;;;;;5051163;28;20025;-74
2023/07/23 06:09:05;;;;;;;8.07;3.50;;;17.40;92.50;;;;;;5051165;28;20393;-74
2023/07/23 06:11:30;;;;;;;7.10;3.00;;;17.40;92.40;;;;;;5050229;28;20021;-74
2023/07/23 06:13:58;;;;;;;7.53;2.85;;;17.40;92.50;;;;;;5053341;28;20028;-73
2023/07/23 06:16:23;;;;;;;7.97;3.17;;;17.40;92.30;;;;;;5052241;28;20032;-73
2023/07/23 06:18:49;;;;;;;6.63;3.08;;;17.40;92.30;;;;;;5053359;28;20112;-74
2023/07/23 06:21:14;;;;;;;9.68;3.70;;;17.40;92.30;;;;;;5051428;28;20147;-74
2023/07/23 06:23:40;;;;;;;6.68;3.47;;;17.40;92.30;;;;;;5052308;28;20037;-74
2023/07/23 06:26:06;;;;;;;6.13;2.85;;;17.50;92.20;;;;;;5035797;28;20041;-73
2023/07/23 06:28:32;;;;;;;7.93;3.33;;;17.50;92.50;;;;;;5035678;28;20183;-74
2023/07/23 06:30:58;;;;;;;4.85;2.50;;;17.40;92.20;;;;;;5052035;28;20060;-74
2023/07/23 06:33:23;;;;;;;5.88;2.67;;;17.40;92.20;;;;;;5053291;28;20436;-73
2023/07/23 06:35:49;;;;;;;7.50;2.88;;;17.40;92.20;;;;;;5052118;28;20021;-72
2023/07/23 06:38:15;;;;;;;6.40;2.97;;;17.40;92.10;;;;;;5035365;28;20029;-73
2023/07/23 06:40:51;;;;;;;10.00;3.05;;;17.40;92.20;;;;;;5053219;28;20046;-72
2023/07/23 06:43:17;;;;;;;6.50;2.47;;;17.40;92.10;;;;;;5051903;28;20537;-73
2023/07/23 06:45:48;;;;;;;6.55;3.00;;;17.40;92.10;;;;;;5046528;28;20060;-72
2023/07/23 06:48:15;;;;;;;7.10;3.08;;;17.40;92.10;;;;;;5052927;28;20061;-73
2023/07/23 06:50:41;;;;;;;5.50;2.83;;;17.40;92.00;;;;;;5051832;28;20088;-72
2023/07/23 06:53:06;;;;;;;5.40;2.53;;;17.50;92.10;;;;;;5053135;28;20041;-73
2023/07/23 06:55:55;;;;;;;7.50;3.42;;;17.40;92.00;;;;;;5035279;28;20025;-73
2023/07/23 06:58:21;;;;;;;6.40;3.17;;;17.40;92.10;;;;;;5051959;28;20029;-72
2023/07/23 07:00:46;;;;;;;8.82;2.80;;;17.40;92.30;;;;;;5051761;28;20039;-72
2023/07/23 07:03:12;;;;;;;8.43;3.22;;;17.40;92.30;;;;;;5051831;28;20110;-73
2023/07/23 07:05:37;;;;;;;6.28;3.05;;;17.40;92.50;;;;;;5052341;28;20402;-72
2023/07/23 07:08:03;;;;;;;7.55;3.72;;;17.40;92.60;;;;;;5051337;28;20064;-73
2023/07/23 07:10:29;;;;;;;6.43;3.65;;;17.30;92.70;;;;;;5051870;28;20041;-72
2023/07/23 07:12:54;;;;;;;7.07;3.35;;;17.30;92.90;;;;;;5051970;28;20033;-73
2023/07/23 07:15:20;;;;;;;6.45;2.75;;;17.30;93.10;;;;;;5035268;28;20049;-72
2023/07/23 07:17:45;;;;;;;7.78;3.20;;;17.20;93.20;;;;;;5054322;28;20048;-79
2023/07/23 07:20:11;;;;;;;5.13;2.58;;;17.20;93.30;;;;;;5038749;28;20068;-81
2023/07/23 07:22:37;;;;;;;6.55;3.40;;;17.20;93.40;;;;;;5043100;28;20041;-81
2023/07/23 07:25:03;;;;;;;10.63;3.72;;;17.20;93.50;;;;;;5035819;28;20048;-79
2023/07/23 07:27:28;;;;;;;5.63;3.35;;;17.10;93.70;;;;;;5055247;28;20039;-80
2023/07/23 07:29:54;;;;;;;6.60;3.38;;;17.10;93.80;;;;;;5055715;28;20531;-81
2023/07/23 07:32:19;;;;;;;5.43;3.10;;;17.10;94.20;;;;;;5056777;28;20029;-80
2023/07/23 07:34:45;;;;;;;6.15;3.10;;;17.00;94.40;;;;;;5056651;28;20031;-81
2023/07/23 07:37:11;;;;;;;6.18;2.97;;;17.00;94.60;;;;;;5056491;28;20025;-80
2023/07/23 07:39:37;;;;;;;7.70;3.25;;;16.90;94.70;;;;;;5052367;28;20029;-80
2023/07/23 07:42:03;;;;;;;7.05;3.60;;;16.90;94.70;;;;;;5054940;28;20474;-79
2023/07/23 07:44:28;;;;;;;7.60;3.08;;;16.90;95.00;;;;;;5052484;28;20037;-80
2023/07/23 07:46:54;;;;;;;5.90;3.08;;;16.90;95.00;;;;;;5038603;28;20036;-80
2023/07/23 07:49:20;;;;;;;5.63;3.17;;;16.80;95.60;;;;;;5055237;28;20033;-80
2023/07/23 07:51:47;;;;;;;6.25;3.30;;;16.80;95.50;;;;;;5056424;28;20041;-78
2023/07/23 07:54:13;;;;;;;8.43;3.88;;;16.80;95.90;;;;;;5056790;28;20031;-82
2023/07/23 07:56:39;;;;;;;8.02;3.70;;;16.70;96.30;;;;;;5051565;28;20021;-79
2023/07/23 07:59:06;;;;;;;6.05;3.30;;;16.70;96.60;;;;;;5042945;28;20388;-80
2023/07/23 08:01:32;;;;;;;8.93;3.35;;;16.70;96.70;;;;;;5046696;28;20029;-82
2023/07/23 08:03:58;;;;;;;6.60;3.58;;;16.60;96.80;;;;;;5047119;28;20551;-81
2023/07/23 08:06:25;;;;;;;6.38;3.67;;;16.60;97.00;;;;;;5045793;28;20470;-82
2023/07/23 08:08:53;;;;;;;7.75;3.53;;;16.60;97.50;;;;;;5045017;28;20036;-80
2023/07/23 08:11:20;;;;;;;9.18;4.28;;;16.60;97.70;;;;;;5043994;28;20021;-82
2023/07/23 08:13:46;;;;;;;8.93;3.58;;;16.60;97.50;;;;;;5046779;28;20108;-80
2023/07/23 08:16:14;;;;;;;7.25;3.35;;;16.60;97.70;;;;;;5046310;28;20532;-82
2023/07/23 08:18:40;;;;;;;8.00;3.63;;;16.50;97.90;;;;;;5044506;28;20071;-81
2023/07/23 08:21:06;;;;;;;7.20;3.70;;;16.50;97.90;;;;;;5045630;28;20435;-81
2023/07/23 08:23:34;;;;;;;6.53;3.65;;;16.50;98.20;;;;;;5045946;28;20026;-82
2023/07/23 08:26:03;;;;;;;6.93;3.55;;;16.60;98.60;;;;;;5043059;28;20060;-82
2023/07/23 08:28:33;;;;;;;6.85;3.13;;;16.60;98.70;;;;;;5041786;28;20017;-74
2023/07/23 08:31:00;;;;;;;7.30;4.13;;;16.60;98.80;;;;;;5046168;28;20025;-74
2023/07/23 08:33:28;;;;;;;9.15;4.22;;;16.60;99.10;;;;;;5045029;28;20021;-74
2023/07/23 08:35:56;;;;;;;8.13;4.35;;;16.70;99.10;;;;;;5044166;28;20474;-73
2023/07/23 08:38:23;;;;;;;7.32;3.92;;;16.70;99.20;;;;;;5044112;28;20032;-74
2023/07/23 08:40:57;;;;;;;8.95;3.90;;;16.70;99.20;;;;;;5027014;28;20025;-79
2023/07/23 08:44:00;;;;;;;9.35;4.30;;;16.70;99.30;;;;;;5044907;28;20100;-81
2023/07/23 08:46:27;;;;;;;7.72;4.07;;;16.70;99.20;;;;;;5044661;28;20025;-80
2023/07/23 08:48:58;;;;;;;9.60;4.53;;;16.70;99.40;;;;;;5044355;28;20021;-79
2023/07/23 08:51:32;;;;;;;11.13;4.78;;;16.80;99.40;;;;;;5051174;28;20024;-80
2023/07/23 08:53:57;;;;;;;8.02;4.05;;;16.80;99.40;;;;;;5043682;28;20020;-82
2023/07/23 08:56:23;;;;;;;8.52;4.60;;;16.70;99.50;;;;;;5044038;28;20029;-81
2023/07/23 08:58:50;;;;;;;7.30;4.03;;;16.80;99.60;;;;;;5045398;28;20031;-79
2023/07/23 09:01:16;;;;;;;7.88;4.15;;;16.80;99.60;;;;;;5045775;28;20036;-81
2023/07/23 09:03:42;;;;;;;9.43;4.30;;;16.80;99.60;;;;;;5044385;28;20037;-81
2023/07/23 09:06:10;;;;;;;7.13;3.80;;;16.90;99.60;;;;;;5047386;28;20401;-81
2023/07/23 09:08:36;;;;;;;6.50;3.75;;;16.90;99.50;;;;;;5043349;28;20131;-81
2023/07/23 09:11:05;;;;;;;7.22;3.63;;;16.90;99.50;;;;;;5042462;28;20099;-80
2023/07/23 09:13:35;;;;;;;7.72;4.50;;;17.00;99.50;;;;;;5042721;28;20470;-80
2023/07/23 09:16:01;;;;;;;7.72;3.88;;;17.10;99.50;;;;;;5053585;28;20029;-74
2023/07/23 09:18:27;;;;;;;8.07;3.88;;;17.10;99.40;;;;;;5053928;28;20033;-73
2023/07/23 09:20:53;;;;;;;8.15;3.63;;;17.10;99.60;;;;;;5036912;28;20527;-81
2023/07/23 09:23:19;;;;;;;8.02;3.60;;;17.10;99.30;;;;;;5054721;28;20165;-79
2023/07/23 09:25:46;;;;;;;9.85;3.85;;;17.10;99.20;;;;;;5054589;28;20040;-81
2023/07/23 09:28:24;;;;;;;8.57;3.03;;;17.20;99.20;;;;;;5054611;28;20028;-80
2023/07/23 09:30:54;;;;;;;6.13;3.67;;;17.30;99.10;;;;;;5043837;28;20607;-74
2023/07/23 09:33:20;;;;;;;5.35;2.50;;;17.20;99.00;;;;;;5043679;28;20024;-75
2023/07/23 09:35:46;;;;;;;5.53;3.13;;;17.30;99.00;;;;;;5045183;28;20013;-74
2023/07/23 09:38:13;;;;;;;5.72;2.65;;;17.30;99.00;;;;;;5041935;28;20470;-74
2023/07/23 09:40:41;;;;;;;5.53;2.55;;;17.30;98.90;;;;;;5024410;28;20481;-74
2023/07/23 09:43:07;;;;;;;4.30;2.47;;;17.40;99.00;;;;;;5052887;28;20036;-73
2023/07/23 09:45:37;;;;;;;4.75;2.30;;;17.40;98.90;;;;;;5051220;28;20054;-73
2023/07/23 09:48:03;;;;;;;6.90;2.58;;;17.50;98.90;;;;;;5041003;28;20025;-74
2023/07/23 09:50:30;;;;;;;7.25;2.75;;;17.40;98.80;;;;;;5034419;28;20034;-81
2023/07/23 09:52:56;;;;;;;4.03;2.00;;;17.50;98.80;;;;;;5042721;28;20063;-80
2023/07/23 09:55:22;;;;;;;4.63;2.08;;;17.50;98.80;;;;;;5034171;28;20037;-81
2023/07/23 09:57:50;;;;;;;3.88;2.08;;;17.60;98.80;;;;;;5036712;28;20021;-75
2023/07/23 10:00:16;;;;;;;5.75;2.45;;;17.60;98.80;;;;;;5024307;28;20083;-73
2023/07/23 10:02:48;;;;;;;6.45;2.45;;;17.50;98.80;;;;;;5045122;28;20033;-73
2023/07/23 10:05:18;;;;;;;4.82;2.28;;;17.60;98.70;;;;;;5038331;28;20045;-74
2023/07/23 10:07:47;;;;;;;4.55;2.38;;;17.60;98.70;;;;;;5041759;28;20021;-82
2023/07/23 10:10:13;;;;;;;4.68;2.30;;;17.60;98.70;;;;;;5043319;28;20051;-82
2023/07/23 10:12:39;;;;;;;5.65;1.85;;;17.60;98.90;;;;;;5052664;28;20445;-81
2023/07/23 10:15:07;;;;;;;4.85;2.10;;;17.70;98.90;;;;;;5050996;28;20033;-81
2023/07/23 10:17:37;;;;;;;3.80;2.05;;;17.70;99.20;;;;;;5042945;28;20025;-75
2023/07/23 10:20:05;;;;;;;4.13;1.70;;;17.70;99.10;;;;;;5032788;28;20050;-75
2023/07/23 10:22:34;;;;;;;2.60;1.60;;;17.80;99.40;;;;;;5049917;28;20433;-75
2023/07/23 10:25:00;;;;;;;3.85;1.60;;;17.80;99.40;;;;;;5046840;28;20473;-76
2023/07/23 10:27:25;;;;;;;4.70;1.65;;;17.90;99.50;;;;;;5047363;28;20109;-76
2023/07/23 10:30:17;;;;;;;3.35;1.60;;;17.80;99.70;;;;;;5038050;28;20474;-74
2023/07/23 10:32:44;;;;;;;2.40;1.15;;;17.80;99.90;;;;;;5040431;28;20432;-79
2023/07/23 10:35:10;;;;;;;4.43;1.48;;;17.80;99.90;;;;;;5048688;28;20021;-74
2023/07/23 10:37:35;;;;;;;3.92;1.40;;;17.80;99.90;;;;;;5041064;28;20351;-75
2023/07/23 10:40:03;;;;;;;3.55;1.23;;;17.70;99.90;;;;;;5045321;28;20045;-75
2023/07/23 10:42:34;;;;;;;2.10;1.00;;;17.70;99.90;;;;;;5035576;28;20026;-74
2023/07/23 10:45:22;;;;;;;2.53;1.20;;;17.70;99.90;;;;;;5032162;28;20056;-80
2023/07/23 10:47:52;;;;;;;2.72;1.23;;;17.60;99.90;;;;;;5031953;28;20112;-80
2023/07/23 10:50:19;;;;;;;1.67;0.80;;;17.60;99.90;;;;;;5033031;28;20369;-80
2023/07/23 10:52:45;;;;;;;3.97;1.23;;;17.50;99.90;;;;;;5033313;28;20021;-79
2023/07/23 10:55:11;;;;;;;2.90;1.10;;;17.50;99.90;;;;;;5033364;28;20025;-79
2023/07/23 10:57:42;;;;;;;2.83;1.17;;;17.40;99.90;;;;;;5033454;28;20022;-79
2023/07/23 11:00:30;;;;;;;2.55;1.00;;;17.40;99.90;;;;;;5033400;28;20026;-81
2023/07/23 11:02:56;;;;;;;3.30;0.90;;;17.40;99.90;;;;;;5031843;28;20033;-79
2023/07/23 11:05:22;;;;;;;2.33;1.13;;;17.40;99.90;;;;;;5031693;28;20032;-76
2023/07/23 11:08:14;;;;;;;4.05;1.52;;;17.40;99.90;;;;;;5015495;28;20381;-81
2023/07/23 11:10:57;;;;;;;4.65;1.52;;;17.40;99.90;;;;;;5033626;28;20489;-80
2023/07/23 11:13:25;;;;;;;3.67;1.70;;;17.30;99.90;;;;;;5031901;28;20041;-79
2023/07/23 11:15:51;;;;;;;3.50;1.70;;;17.30;99.90;;;;;;5031826;28;20057;-81
2023/07/23 11:18:19;;;;;;;3.83;1.85;;;17.30;99.90;;;;;;5040095;28;20060;-80
2023/07/23 11:20:49;;;;;;;3.97;2.20;;;17.30;99.90;;;;;;5050750;28;20158;-79
2023/07/23 11:23:16;;;;;;;3.85;1.63;;;17.30;99.90;;;;;;5052915;28;20032;-76
2023/07/23 11:25:43;;;;;;;3.67;1.92;;;17.40;99.90;;;;;;5056893;28;20012;-75
2023/07/23 11:28:10;;;;;;;3.70;2.13;;;17.40;99.90;;;;;;5052881;28;20044;-75
2023/07/23 11:30:36;;;;;;;5.40;2.10;;;17.40;99.90;;;;;;5052100;28;20029;-80
2023/07/23 11:33:03;;;;;;;4.55;2.15;;;17.50;99.90;;;;;;5051742;28;20024;-81
2023/07/23 11:35:30;;;;;;;4.15;1.92;;;17.50;99.90;;;;;;5051780;28;20474;-81
2023/07/23 11:38:01;;;;;;;5.10;2.20;;;17.60;99.90;;;;;;5052763;28;20113;-75
2023/07/23 11:40:26;;;;;;;4.10;2.10;;;17.70;99.90;;;;;;5053191;28;20020;-75
2023/07/23 11:42:53;;;;;;;4.00;2.00;;;17.90;99.90;;;;;;5052761;28;20041;-76
2023/07/23 11:45:19;;;;;;;4.70;2.70;;;18.00;99.90;;;;;;5040903;28;20021;-73
2023/07/23 11:47:49;;;;;;;3.05;1.90;;;18.20;99.90;;;;;;5051098;28;20037;-76
2023/07/23 11:50:16;;;;;;;4.90;2.30;;;18.30;99.90;;;;;;5049087;28;20072;-74
2023/07/23 11:52:42;;;;;;;4.90;2.78;;;18.40;99.90;;;;;;5045652;28;20033;-74
2023/07/23 11:55:25;;;;;;;4.90;2.97;;;18.50;99.90;;;;;;5052769;28;20404;-75
2023/07/23 11:57:56;;;;;;;5.88;2.88;;;18.70;99.90;;;;;;5037597;28;20109;-75
2023/07/23 12:00:37;;;;;;;5.10;2.42;;;18.90;99.90;;;;;;5031944;28;20026;-76
2023/07/23 12:03:07;;;;;;;5.88;3.40;;;19.00;99.90;;;;;;5034050;28;20108;-75
2023/07/23 12:05:33;;;;;;;4.53;2.70;;;19.20;99.90;;;;;;5023699;28;20080;-74
2023/07/23 12:07:58;;;;;;;5.00;2.60;;;19.30;99.90;;;;;;5055999;28;20029;-73
2023/07/23 12:10:27;;;;;;;4.10;2.58;;;19.30;99.90;;;;;;5055823;28;20086;-75
2023/07/23 12:12:54;;;;;;;4.28;2.55;;;19.40;99.90;;;;;;5038482;28;20386;-75
2023/07/23 12:15:19;;;;;;;5.43;2.92;;;19.50;99.90;;;;;;5037984;28;20029;-75
2023/07/23 12:17:45;;;;;;;3.70;2.45;;;19.50;99.90;;;;;;5055173;28;20037;-74
2023/07/23 12:20:23;;;;;;;4.80;2.90;;;19.60;99.90;;;;;;5054981;28;20033;-75
2023/07/23 12:22:54;;;;;;;4.57;2.63;;;19.70;99.80;;;;;;5054686;28;20041;-75
2023/07/23 12:25:21;;;;;;;6.03;2.75;;;19.70;99.60;;;;;;5054638;28;20064;-75
2023/07/23 12:27:47;;;;;;;4.25;2.55;;;19.70;99.30;;;;;;5054641;28;20056;-75
2023/07/23 12:30:13;;;;;;;4.07;2.05;;;19.70;99.40;;;;;;5054478;28;20029;-76
2023/07/23 12:32:39;;;;;;;4.50;2.85;;;19.80;99.40;;;;;;5027331;28;20045;-77
2023/07/23 12:35:06;;;;;;;5.15;2.53;;;19.90;99.30;;;;;;5055692;28;20029;-80
2023/07/23 12:37:32;;;;;;;5.35;2.85;;;20.00;99.00;;;;;;5053940;28;20029;-81
2023/07/23 12:39:58;;;;;;;5.97;2.47;;;20.10;98.60;;;;;;5055707;28;20469;-80
2023/07/23 12:42:24;;;;;;;3.50;2.28;;;20.20;98.50;;;;;;5055540;28;20044;-81
2023/07/23 12:44:49;;;;;;;5.32;2.65;;;20.30;98.00;;;;;;5053331;28;20028;-81